Wednesday, October 18, 2017, 6:15 PM EDT
Back to Local

KUCP, New Castle, New Castle Municipal Airport

Location: Edinburg, PA, United States Lat: 41.025
Local Time: 6:15 PM EDT (22:15 GMT) Lon: -80.413
Time Zone: US/Eastern Elev: 1072 ft

Show me the last for .
Show Decoded

2017-10-18 17:56 METAR KUCP 182156Z AUTO 22003KT 10SM CLR 20/06 A3022 RMK AO2 SLP251 T02000056 =
2017-10-18 16:56 METAR KUCP 182056Z AUTO 20005KT 10SM CLR 22/06 A3022 RMK AO2 SLP250 T02170056
                 56021 =
2017-10-18 15:56 METAR KUCP 181956Z AUTO 19006KT 10SM CLR 21/06 A3024 RMK AO2 SLP255 T02110061 =
2017-10-18 14:56 METAR KUCP 181856Z AUTO 22006KT 10SM CLR 21/06 A3026 RMK AO2 SLP262 T02110061 =
2017-10-18 13:56 METAR KUCP 181756Z AUTO VRB05KT 10SM CLR 19/05 A3029 RMK AO2 SLP271 T01940050
                 10200 20033 58022 =
2017-10-18 12:56 METAR KUCP 181656Z AUTO VRB04KT 10SM CLR 19/06 A3033 RMK AO2 SLP284 T01890061 =
2017-10-18 11:56 METAR KUCP 181556Z AUTO 19005KT 10SM CLR 17/07 A3035 RMK AO2 SLP293 T01720067 =
2017-10-18 10:56 METAR KUCP 181456Z AUTO 00000KT 10SM CLR 14/07 A3035 RMK AO2 SLP296 T01440067
                 50003 =
2017-10-18 09:56 METAR KUCP 181356Z AUTO VRB03KT 10SM CLR 11/06 A3036 RMK AO2 SLP299 T01060056 =
2017-10-18 08:56 METAR KUCP 181256Z AUTO 00000KT 10SM CLR 06/06 A3036 RMK AO2 SLP301 T00610056 =
2017-10-18 06:56 METAR KUCP 181056Z AUTO 00000KT 10SM CLR 03/03 A3033 RMK AO2 SLP292 T00330033 =
2017-10-18 05:56 METAR KUCP 180956Z AUTO 19004KT 10SM CLR 04/03 A3032 RMK AO2 SLP285 T00390033 =
2017-10-18 04:56 METAR KUCP 180856Z AUTO 00000KT 10SM CLR 04/04 A3031 RMK AO2 SLP281 T00440039
                 53002 =
2017-10-18 03:56 METAR KUCP 180756Z AUTO 00000KT 10SM CLR 04/04 A3030 RMK AO2 SLP278 T00440039 =
2017-10-18 02:56 METAR KUCP 180656Z AUTO 00000KT 10SM CLR 07/04 A3031 RMK AO2 SLP279 T00720039 =
2017-10-18 01:56 METAR KUCP 180556Z AUTO 00000KT 10SM CLR 08/04 A3030 RMK AO2 SLP278 T00830044
                 10128 20083 53004 =
2017-10-18 00:56 METAR KUCP 180456Z AUTO 20004KT 10SM CLR 10/04 A3029 RMK AO2 SLP273 T01000044
                 401721011 =
2017-10-17 23:56 METAR KUCP 180356Z AUTO 20005KT 10SM CLR 10/04 A3029 RMK AO2 SLP275 T01000044 =
2017-10-17 22:56 METAR KUCP 180256Z AUTO 20003KT 10SM CLR 08/04 A3029 RMK AO2 SLP275 T00830044
                 53013 =
2017-10-17 21:56 METAR KUCP 180156Z AUTO VRB03KT 10SM CLR 11/04 A3027 RMK AO2 SLP271 T01110044 =
2017-10-17 20:56 METAR KUCP 180056Z AUTO 19004KT 10SM CLR 12/04 A3026 RMK AO2 SLP267 T01170044 =
2017-10-17 19:56 METAR KUCP 172356Z AUTO 19004KT 10SM CLR 13/04 A3025 RMK AO2 SLP265 T01280039
                 10172 20128 53004 =
2017-10-17 18:56 METAR KUCP 172256Z AUTO 21004KT 10SM CLR 13/04 A3024 RMK AO2 SLP262 T01330039
                 TSNO =

Support USWX by starting your Amazon purchase here.